Time;durP1;ratioP1;P1;durP2;ratioP2;P2;SDS_P1;SDS_P2;PMS_P1;PMS_P2;Temp;Humidity;BMP_temperature;BMP_pressure;BME280_temperature;BME280_humidity;BME280_pressure;Samples;Min_cycle;Max_cycle;Signal;HPM_P1;HPM_P2
2022/12/16 00:01:17;;;;;;;56.70;27.00;;;;;;;-0.35;100.00;96911.69;107843;1266;68937;-67
2022/12/16 00:03:50;;;;;;;47.70;25.60;;;;;;;-0.40;100.00;96908.44;107880;1263;58914;-67
2022/12/16 00:06:30;;;;;;;44.50;22.40;;;;;;;-0.41;100.00;96911.39;107928;1266;58868;-67
2022/12/16 00:09:01;;;;;;;44.60;23.70;;;;;;;-0.40;100.00;96913.91;107824;1267;70455;-67
2022/12/16 00:11:31;;;;;;;42.20;23.20;;;;;;;-0.38;100.00;96910.39;107679;1266;70072;-67
2022/12/16 00:14:00;;;;;;;;;;;;;;;-0.37;100.00;96915.33;107765;1262;69340;-67
2022/12/16 00:16:29;;;;;;;40.10;21.60;;;;;;;-0.35;100.00;96916.64;107785;1267;58922;-67
2022/12/16 00:18:59;;;;;;;37.40;22.80;;;;;;;-0.35;100.00;96914.41;107793;1262;59007;-67
2022/12/16 00:21:29;;;;;;;42.70;23.00;;;;;;;-0.37;100.00;96907.46;107753;1262;71117;-67
2022/12/16 00:23:59;;;;;;;39.90;22.70;;;;;;;-0.37;100.00;96907.46;107813;1266;68843;-68
2022/12/16 00:26:30;;;;;;;39.00;22.80;;;;;;;-0.36;100.00;96908.64;107195;1262;830358;-65
2022/12/16 00:29:00;;;;;;;44.10;23.30;;;;;;;-0.36;100.00;96901.96;107948;1267;58928;-66
2022/12/16 00:31:30;;;;;;;46.10;26.00;;;;;;;-0.34;100.00;96896.40;107806;1266;58955;-65
2022/12/16 00:33:59;;;;;;;44.30;26.90;;;;;;;-0.31;100.00;96888.95;107702;1267;69799;-66
2022/12/16 00:36:30;;;;;;;46.00;22.10;;;;;;;-0.30;100.00;96883.73;107884;1266;69601;-68
2022/12/16 00:39:00;;;;;;;40.30;21.30;;;;;;;-0.25;100.00;96875.48;107749;1263;69258;-66
2022/12/16 00:41:30;;;;;;;43.50;23.10;;;;;;;-0.24;100.00;96877.17;107914;1266;58893;-67
2022/12/16 00:44:00;;;;;;;40.40;22.40;;;;;;;-0.21;100.00;96874.52;107803;1266;58892;-66
2022/12/16 00:46:30;;;;;;;43.60;24.00;;;;;;;-0.20;100.00;96869.30;107724;1263;70608;-67
2022/12/16 00:49:00;;;;;;;57.70;26.50;;;;;;;-0.17;100.00;96861.82;107874;1266;69352;-67
2022/12/16 00:51:30;;;;;;;50.60;25.40;;;;;;;-0.15;100.00;96855.73;107743;1266;68206;-66
2022/12/16 00:54:00;;;;;;;42.30;23.70;;;;;;;-0.14;100.00;96851.77;107931;1266;58926;-66
2022/12/16 00:56:30;;;;;;;46.20;23.60;;;;;;;-0.14;100.00;96853.34;107966;1262;58923;-66
2022/12/16 00:58:59;;;;;;;46.30;23.60;;;;;;;-0.15;100.00;96852.34;107849;1267;71207;-66
2022/12/16 01:01:28;;;;;;;36.40;19.70;;;;;;;-0.17;100.00;96854.14;107800;1267;69601;-66
2022/12/16 01:03:58;;;;;;;44.90;22.30;;;;;;;-0.18;100.00;96860.70;107880;1266;69904;-66
2022/12/16 01:06:27;;;;;;;39.90;20.70;;;;;;;-0.21;100.00;96858.91;107905;1266;58924;-66
2022/12/16 01:08:57;;;;;;;27.70;15.80;;;;;;;-0.22;100.00;96853.65;107729;1266;58892;-66
2022/12/16 01:11:27;;;;;;;35.60;20.60;;;;;;;-0.23;100.00;96844.61;107802;1263;69929;-66
2022/12/16 01:13:58;;;;;;;34.20;18.90;;;;;;;-0.22;100.00;96843.73;107918;1263;69013;-66
2022/12/16 01:16:28;;;;;;;38.90;21.30;;;;;;;-0.21;100.00;96830.48;107775;1262;69002;-67
2022/12/16 01:18:57;;;;;;;41.10;21.90;;;;;;;-0.20;100.00;96827.50;107905;1263;58925;-66
2022/12/16 01:21:28;;;;;;;36.30;20.20;;;;;;;-0.18;100.00;96818.38;107722;1267;58839;-66
2022/12/16 01:23:58;;;;;;;33.90;21.90;;;;;;;-0.15;100.00;96810.88;107951;1262;68636;-66
2022/12/16 01:26:28;;;;;;;36.70;21.50;;;;;;;-0.12;100.00;96810.42;107733;1262;69544;-66
2022/12/16 01:28:58;;;;;;;33.40;20.50;;;;;;;-0.09;100.00;96812.86;107843;1263;70192;-66
2022/12/16 01:31:29;;;;;;;37.80;21.20;;;;;;;-0.07;100.00;96817.40;107910;1263;58916;-66
2022/12/16 01:33:59;;;;;;;39.50;21.40;;;;;;;-0.06;100.00;96822.14;107784;1264;58904;-66
2022/12/16 01:36:30;;;;;;;39.80;20.50;;;;;;;-0.06;100.00;96816.51;107712;1267;70612;-67
2022/12/16 01:39:01;;;;;;;34.00;18.20;;;;;;;-0.04;100.00;96811.47;107831;1266;69316;-67
2022/12/16 01:41:30;;;;;;;41.40;22.10;;;;;;;0.00;100.00;96809.92;107745;1267;69231;-67
2022/12/16 01:44:15;;;;;;;32.50;18.40;;;;;;;0.05;100.00;96805.98;107836;1263;58992;-66
2022/12/16 01:46:49;;;;;;;32.90;18.50;;;;;;;0.10;100.00;96809.36;107922;1267;58907;-66
2022/12/16 01:49:26;;;;;;;35.50;20.30;;;;;;;0.15;100.00;96803.33;107929;1263;70146;-67
2022/12/16 01:52:01;;;;;;;33.20;19.40;;;;;;;0.20;100.00;96791.33;107870;1266;70027;-66
2022/12/16 01:54:54;;;;;;;33.70;19.20;;;;;;;0.24;100.00;96787.35;107758;1263;69252;-66
2022/12/16 01:57:50;;;;;;;30.30;16.70;;;;;;;0.31;100.00;96792.02;107649;1266;58891;-68
2022/12/16 02:00:24;;;;;;;40.50;21.50;;;;;;;0.39;100.00;96791.73;107774;1263;58890;-68
2022/12/16 02:02:55;;;;;;;44.30;26.70;;;;;;;0.47;100.00;96797.20;107945;1264;70722;-66
2022/12/16 02:05:28;;;;;;;34.50;21.40;;;;;;;0.45;100.00;96801.75;107775;1263;69232;-67
2022/12/16 02:08:09;;;;;;;51.20;26.30;;;;;;;0.39;100.00;96803.90;107915;1262;69589;-66
2022/12/16 02:10:41;;;;;;;36.40;22.60;;;;;;;0.33;100.00;96798.98;107797;1266;58964;-66
2022/12/16 02:14:02;;;;;;;42.00;24.50;;;;;;;0.30;100.00;96800.33;107931;1266;58850;-66
2022/12/16 02:17:06;;;;;;;39.80;20.80;;;;;;;0.28;100.00;96800.42;107970;1267;70527;-66
2022/12/16 02:20:04;;;;;;;42.90;25.60;;;;;;;0.20;100.00;96809.64;107670;1267;69180;-66
2022/12/16 02:22:57;;;;;;;40.50;23.80;;;;;;;0.14;100.00;96806.48;108000;1266;68675;-66
2022/12/16 02:25:51;;;;;;;34.60;21.40;;;;;;;0.09;100.00;96794.49;107936;1266;58900;-67
2022/12/16 02:28:59;;;;;;;46.50;24.40;;;;;;;0.08;100.00;96796.59;107968;1262;58957;-66
2022/12/16 02:31:37;;;;;;;35.90;20.20;;;;;;;0.07;100.00;96800.41;107908;1267;70600;-66
2022/12/16 02:34:25;;;;;;;34.70;19.60;;;;;;;0.08;100.00;96796.06;107924;1267;69089;-66
2022/12/16 02:37:07;;;;;;;35.20;21.90;;;;;;;0.11;100.00;96757.58;107883;1263;69408;-66
2022/12/16 02:39:47;;;;;;;34.20;20.00;;;;;;;0.15;100.00;96750.39;107973;1263;58946;-66
2022/12/16 02:42:46;;;;;;;37.90;22.20;;;;;;;0.17;100.00;96730.09;107926;1263;58893;-66
2022/12/16 02:45:20;;;;;;;29.50;19.30;;;;;;;0.19;100.00;96734.77;107650;1264;71232;-66
2022/12/16 02:48:07;;;;;;;32.50;18.30;;;;;;;0.23;100.00;96727.73;107953;1266;68672;-66
2022/12/16 02:50:45;;;;;;;;;;;;;;;0.27;100.00;96731.71;107837;1267;70006;-66
2022/12/16 02:53:17;;;;;;;28.00;16.30;;;;;;;0.33;100.00;96728.73;107922;1267;58943;-66
2022/12/16 02:56:09;;;;;;;34.30;17.70;;;;;;;0.39;100.00;96722.09;107925;1266;58850;-66
2022/12/16 02:58:59;;;;;;;38.00;19.60;;;;;;;0.47;100.00;96713.55;107958;1266;68768;-66
2022/12/16 03:02:20;;;;;;;30.50;17.60;;;;;;;0.51;100.00;96717.46;107842;1263;68372;-66
2022/12/16 03:05:19;;;;;;;30.20;17.60;;;;;;;0.58;100.00;96708.95;107390;1274;68533;-66
2022/12/16 03:07:54;;;;;;;32.20;18.80;;;;;;;0.62;100.00;96695.04;107754;1263;58873;-66
2022/12/16 03:10:29;;;;;;;29.10;17.60;;;;;;;0.64;100.00;96705.07;107970;1264;58934;-66
2022/12/16 03:13:02;;;;;;;28.20;17.50;;;;;;;0.67;100.00;96701.34;107925;1262;71068;-68
2022/12/16 03:15:35;;;;;;;28.50;16.20;;;;;;;0.67;100.00;96718.63;107850;1266;69282;-67
2022/12/16 03:18:09;;;;;;;30.90;19.40;;;;;;;0.65;100.00;96712.22;107669;1263;69860;-67
2022/12/16 03:21:04;;;;;;;26.90;16.10;;;;;;;0.68;100.00;96725.63;107968;1266;58985;-67
2022/12/16 03:23:57;;;;;;;30.60;18.50;;;;;;;0.72;100.00;96724.09;107964;1267;58949;-67
2022/12/16 03:27:03;;;;;;;28.30;16.70;;;;;;;0.76;100.00;96719.30;107967;1266;70589;-67
2022/12/16 03:30:08;;;;;;;26.60;15.60;;;;;;;0.81;100.00;96718.23;107756;1267;69220;-65
2022/12/16 03:32:48;;;;;;;30.30;20.20;;;;;;;0.84;100.00;96724.25;107864;1267;69240;-66
2022/12/16 03:35:36;;;;;;;37.80;20.10;;;;;;;0.83;100.00;96703.17;107971;1266;58909;-66
2022/12/16 03:38:26;;;;;;;34.40;19.80;;;;;;;0.79;100.00;96708.73;107911;1267;58896;-66
2022/12/16 03:40:57;;;;;;;34.20;20.00;;;;;;;0.75;100.00;96702.04;107942;1267;70648;-68
2022/12/16 03:43:27;;;;;;;31.00;20.10;;;;;;;0.72;100.00;96699.89;107816;1267;69430;-65
2022/12/16 03:46:03;;;;;;;32.00;20.70;;;;;;;0.73;100.00;96684.07;107805;1267;69336;-65
2022/12/16 03:48:33;;;;;;;30.70;19.90;;;;;;;0.75;100.00;96687.59;107871;1266;59009;-66
2022/12/16 03:51:04;;;;;;;30.50;19.70;;;;;;;0.76;100.00;96699.04;107822;1266;58886;-66
2022/12/16 03:53:51;;;;;;;30.60;18.60;;;;;;;0.79;100.00;96689.84;107769;1262;71416;-66
2022/12/16 03:56:20;;;;;;;39.10;23.70;;;;;;;0.82;100.00;96698.60;107956;1266;69219;-66
2022/12/16 03:58:51;;;;;;;33.50;21.30;;;;;;;0.83;100.00;96699.77;107868;1266;69767;-66
2022/12/16 04:01:22;;;;;;;31.30;19.20;;;;;;;0.82;100.00;96698.93;107865;1266;58920;-66
2022/12/16 04:03:53;;;;;;;31.60;18.80;;;;;;;0.85;100.00;96701.23;107967;1264;58956;-66
2022/12/16 04:06:23;;;;;;;40.10;23.10;;;;;;;0.88;100.00;96714.12;107985;1266;70531;-67
2022/12/16 04:08:53;;;;;;;;;;;;;;;0.83;100.00;96699.05;107849;1267;68454;-66
2022/12/16 04:25:52;;;;;;;32.20;19.90;;;;;;;0.96;100.00;96652.84;107935;1267;69774;-67
2022/12/16 04:28:39;;;;;;;31.40;19.00;;;;;;;0.98;100.00;96658.23;107721;1263;58975;-67
2022/12/16 04:31:09;;;;;;;33.60;20.90;;;;;;;1.01;100.00;96652.09;107778;1262;58820;-67
